Time;durP1;ratioP1;P1;durP2;ratioP2;P2;SDS_P1;SDS_P2;PMS_P1;PMS_P2;Temp;Humidity;BMP_temperature;BMP_pressure;BME280_temperature;BME280_humidity;BME280_pressure;Samples;Min_cycle;Max_cycle;Signal;HPM_P1;HPM_P2
2021/04/08 00:02:22;;;;;;;11.13;4.33;;;3.40;93.60;;;;;;5074861;28;20448;-72
2021/04/08 00:04:49;;;;;;;5.50;3.40;;;3.40;93.70;;;;;;5073643;28;20469;-72
2021/04/08 00:07:15;;;;;;;9.67;4.80;;;3.40;93.80;;;;;;5073724;28;20479;-72
2021/04/08 00:09:41;;;;;;;8.30;4.13;;;3.40;93.70;;;;;;5073945;28;20800;-72
2021/04/08 00:12:09;;;;;;;7.53;3.43;;;3.40;93.60;;;;;;5073928;28;20429;-72
2021/04/08 00:14:35;;;;;;;6.03;3.70;;;3.40;93.60;;;;;;5073836;28;20465;-73
2021/04/08 00:17:02;;;;;;;9.60;3.57;;;3.40;93.50;;;;;;5073801;28;20461;-72
2021/04/08 00:19:28;;;;;;;8.80;3.07;;;3.40;93.90;;;;;;5073794;28;20468;-72
2021/04/08 00:21:54;;;;;;;10.03;3.87;;;3.40;93.60;;;;;;5073811;28;20451;-72
2021/04/08 00:24:20;;;;;;;12.10;3.60;;;3.40;93.60;;;;;;5073329;28;21006;-72
2021/04/08 00:26:46;;;;;;;6.30;3.47;;;3.30;93.50;;;;;;5073587;28;20476;-72
2021/04/08 00:29:14;;;;;;;11.33;3.70;;;3.30;93.60;;;;;;5073686;28;20442;-72
2021/04/08 00:31:40;;;;;;;8.53;3.80;;;3.30;93.50;;;;;;5073613;28;20462;-73
2021/04/08 00:34:06;;;;;;;8.33;3.77;;;3.30;93.70;;;;;;5073589;28;20441;-72
2021/04/08 00:36:32;;;;;;;10.73;4.03;;;3.30;93.70;;;;;;5073514;28;20840;-72
2021/04/08 00:38:59;;;;;;;9.40;4.00;;;3.20;93.90;;;;;;5073564;28;20444;-72
2021/04/08 00:41:25;;;;;;;8.73;3.87;;;3.30;94.00;;;;;;5073184;28;21008;-72
2021/04/08 00:43:51;;;;;;;9.77;3.23;;;3.30;93.90;;;;;;5073380;28;20478;-72
2021/04/08 00:46:18;;;;;;;11.43;3.60;;;3.30;93.90;;;;;;5073393;28;20518;-72
2021/04/08 00:48:44;;;;;;;6.67;2.77;;;3.30;94.00;;;;;;5073178;28;20940;-72
2021/04/08 00:51:11;;;;;;;9.33;2.97;;;3.30;93.90;;;;;;5073460;28;20442;-72
2021/04/08 00:53:37;;;;;;;6.90;3.30;;;3.30;93.80;;;;;;5073428;28;20807;-72
2021/04/08 00:56:04;;;;;;;9.03;2.60;;;3.30;93.60;;;;;;5073290;28;20470;-72
2021/04/08 00:58:31;;;;;;;8.23;3.10;;;3.30;93.60;;;;;;5073393;28;20497;-72
2021/04/08 01:00:58;;;;;;;6.80;3.27;;;3.30;93.50;;;;;;5073420;28;20439;-73
2021/04/08 01:03:25;;;;;;;10.13;2.93;;;3.40;93.30;;;;;;5072900;28;20486;-72
2021/04/08 01:05:51;;;;;;;6.60;2.40;;;3.40;93.20;;;;;;5073205;28;20448;-73
2021/04/08 01:08:18;;;;;;;9.03;2.60;;;3.40;93.30;;;;;;5072889;28;20454;-72
2021/04/08 01:10:45;;;;;;;5.60;2.80;;;3.30;93.20;;;;;;5076503;28;20506;-72
2021/04/08 01:13:14;;;;;;;5.20;2.40;;;3.30;93.20;;;;;;5076961;28;20446;-72
2021/04/08 01:15:41;;;;;;;8.63;2.70;;;3.30;93.20;;;;;;5077234;28;20445;-72
2021/04/08 01:18:22;;;;;;;9.13;3.23;;;3.40;93.00;;;;;;5077179;28;20549;-73
2021/04/08 01:21:02;;;;;;;4.30;1.80;;;3.40;92.90;;;;;;5077208;28;20427;-73
2021/04/08 01:24:02;;;;;;;5.80;2.40;;;3.40;92.70;;;;;;5077144;28;20503;-73
2021/04/08 01:26:50;;;;;;;7.03;2.87;;;3.30;92.70;;;;;;5077030;28;20831;-73
2021/04/08 01:29:28;;;;;;;3.93;2.23;;;3.30;92.70;;;;;;5076948;28;20436;-72
2021/04/08 01:31:57;;;;;;;10.10;3.03;;;3.30;92.80;;;;;;5077017;28;20429;-72
2021/04/08 01:34:25;;;;;;;8.43;2.40;;;3.30;92.70;;;;;;5076650;28;20964;-72
2021/04/08 01:36:56;;;;;;;13.07;2.70;;;3.40;92.60;;;;;;5076741;28;20464;-73
2021/04/08 01:39:24;;;;;;;4.40;2.60;;;3.30;92.60;;;;;;5076983;28;20831;-72
2021/04/08 01:41:54;;;;;;;4.17;2.40;;;3.30;92.70;;;;;;5076883;28;20455;-72
2021/04/08 01:44:23;;;;;;;8.10;2.90;;;3.30;92.90;;;;;;5076414;28;21002;-73
2021/04/08 01:46:54;;;;;;;4.87;2.20;;;3.30;92.70;;;;;;5076585;28;20514;-73
2021/04/08 01:49:25;;;;;;;5.97;2.90;;;3.30;92.60;;;;;;5076373;28;20957;-73
2021/04/08 01:51:52;;;;;;;7.30;2.03;;;3.30;92.90;;;;;;5076568;28;20680;-72
2021/04/08 01:54:20;;;;;;;7.63;2.60;;;3.30;92.50;;;;;;5076533;28;20448;-72
2021/04/08 01:56:48;;;;;;;17.63;2.97;;;3.30;92.60;;;;;;5076185;28;20468;-73
2021/04/08 01:59:15;;;;;;;7.80;2.60;;;3.30;92.60;;;;;;5076392;28;20451;-73
2021/04/08 02:01:43;;;;;;;9.83;3.60;;;3.30;92.70;;;;;;5076373;28;20456;-73
2021/04/08 02:04:10;;;;;;;8.20;2.13;;;3.30;92.60;;;;;;5076261;28;20486;-73
2021/04/08 02:06:40;;;;;;;7.90;2.70;;;3.30;92.60;;;;;;5076079;28;20476;-72
2021/04/08 02:09:07;;;;;;;7.30;2.60;;;3.30;92.70;;;;;;5076191;28;20435;-72
2021/04/08 02:11:36;;;;;;;7.80;2.60;;;3.20;93.00;;;;;;5076204;28;20475;-72
2021/04/08 02:14:02;;;;;;;7.83;2.40;;;3.30;92.80;;;;;;5076289;28;20445;-72
2021/04/08 02:16:29;;;;;;;4.83;2.17;;;3.20;92.70;;;;;;5076068;28;20528;-73
2021/04/08 02:18:58;;;;;;;5.80;2.30;;;3.20;92.80;;;;;;5075835;28;20936;-73
2021/04/08 02:21:26;;;;;;;15.33;3.57;;;3.20;92.90;;;;;;5075772;28;20445;-72
2021/04/08 02:23:53;;;;;;;7.53;3.20;;;3.20;92.90;;;;;;5075643;28;21009;-72
2021/04/08 02:26:20;;;;;;;7.87;3.27;;;3.20;92.80;;;;;;5075884;28;20613;-72
2021/04/08 02:28:47;;;;;;;7.30;2.67;;;3.30;93.30;;;;;;5075596;28;20502;-73
2021/04/08 02:31:14;;;;;;;4.67;2.63;;;3.20;92.90;;;;;;5075909;28;20448;-72
2021/04/08 02:33:41;;;;;;;6.70;2.50;;;3.20;93.00;;;;;;5075530;28;20477;-72
2021/04/08 02:36:07;;;;;;;4.90;2.47;;;3.10;93.10;;;;;;5075218;28;20974;-73
2021/04/08 02:38:36;;;;;;;3.60;2.27;;;3.10;93.10;;;;;;5075531;28;20484;-73
2021/04/08 02:41:06;;;;;;;9.13;2.47;;;3.10;93.00;;;;;;5075605;28;20439;-73
2021/04/08 02:43:32;;;;;;;6.30;1.80;;;3.10;92.90;;;;;;5075269;28;20465;-72
2021/04/08 02:45:59;;;;;;;4.90;2.30;;;3.10;92.80;;;;;;5075514;28;20443;-72
2021/04/08 02:48:26;;;;;;;3.50;1.53;;;3.10;92.60;;;;;;5075528;28;20445;-72
2021/04/08 02:50:54;;;;;;;10.30;2.60;;;3.10;92.50;;;;;;5075492;28;20450;-72
2021/04/08 02:53:25;;;;;;;6.03;2.20;;;3.10;92.60;;;;;;5075461;28;20437;-73
2021/04/08 02:55:57;;;;;;;9.03;2.63;;;3.10;92.60;;;;;;5075410;28;20444;-73
2021/04/08 02:58:30;;;;;;;7.73;2.67;;;3.10;92.60;;;;;;5075318;28;20436;-72
2021/04/08 03:01:02;;;;;;;4.67;2.57;;;3.10;92.50;;;;;;5075016;28;20945;-72
2021/04/08 03:03:32;;;;;;;8.00;2.10;;;3.10;92.50;;;;;;5075201;28;20433;-72
2021/04/08 03:06:01;;;;;;;3.30;2.03;;;3.10;92.50;;;;;;5075172;28;20425;-73
2021/04/08 03:08:28;;;;;;;3.63;1.90;;;3.20;92.60;;;;;;5074821;28;20478;-72
2021/04/08 03:10:59;;;;;;;6.53;2.90;;;3.20;92.50;;;;;;5075107;28;20780;-72
2021/04/08 03:13:28;;;;;;;6.87;2.47;;;3.20;92.40;;;;;;5075058;28;20430;-73
2021/04/08 03:15:56;;;;;;;12.23;3.30;;;3.20;92.40;;;;;;5074896;28;20501;-72
2021/04/08 03:18:23;;;;;;;7.20;3.10;;;3.20;92.40;;;;;;5074653;28;20445;-72
2021/04/08 03:20:52;;;;;;;5.63;3.20;;;3.20;92.60;;;;;;5074855;28;20445;-72
2021/04/08 03:23:21;;;;;;;7.47;3.37;;;3.20;92.50;;;;;;5074795;28;20820;-73
2021/04/08 03:25:49;;;;;;;7.07;3.80;;;3.20;92.70;;;;;;5074619;28;20801;-73
2021/04/08 03:28:16;;;;;;;14.60;5.37;;;3.30;92.50;;;;;;5074802;28;20444;-73
2021/04/08 03:30:44;;;;;;;15.47;5.33;;;3.30;92.40;;;;;;5074660;28;20448;-72
2021/04/08 03:33:13;;;;;;;10.93;5.47;;;3.30;92.30;;;;;;5073973;28;20451;-73
2021/04/08 03:35:44;;;;;;;10.30;5.17;;;3.30;92.40;;;;;;5074263;28;20940;-73
2021/04/08 03:38:11;;;;;;;11.00;5.53;;;3.30;92.30;;;;;;5074580;28;20440;-73
2021/04/08 03:40:38;;;;;;;12.33;5.80;;;3.30;92.20;;;;;;5074492;28;20814;-73
2021/04/08 03:43:05;;;;;;;9.30;5.60;;;3.30;91.80;;;;;;5074415;28;20448;-73
2021/04/08 03:45:31;;;;;;;10.27;7.57;;;3.30;91.80;;;;;;5074889;28;20500;-73
2021/04/08 03:48:01;;;;;;;14.17;6.70;;;3.30;91.70;;;;;;5074246;28;20473;-73
2021/04/08 03:50:29;;;;;;;12.17;7.53;;;3.40;91.60;;;;;;5073993;28;20445;-73
2021/04/08 03:52:56;;;;;;;12.60;7.77;;;3.40;91.30;;;;;;5074226;28;20445;-73
2021/04/08 03:55:25;;;;;;;14.53;7.80;;;3.40;91.30;;;;;;5074947;28;20781;-73
2021/04/08 03:57:52;;;;;;;15.00;7.30;;;3.30;91.20;;;;;;5073841;28;20496;-73
2021/04/08 04:00:20;;;;;;;12.47;7.47;;;3.40;91.10;;;;;;5074147;28;20430;-72
2021/04/08 04:02:47;;;;;;;10.60;7.40;;;3.30;91.00;;;;;;5073727;28;20537;-73
2021/04/08 04:05:14;;;;;;;14.47;7.83;;;3.30;90.90;;;;;;5073607;28;20987;-73
2021/04/08 04:07:48;;;;;;;10.53;8.40;;;3.30;90.70;;;;;;5073639;28;20881;-73
2021/04/08 04:10:16;;;;;;;11.30;7.80;;;3.30;90.70;;;;;;5073690;28;20433;-73
2021/04/08 04:12:43;;;;;;;12.93;8.00;;;3.30;90.60;;;;;;5073596;28;20874;-73
2021/04/08 04:15:11;;;;;;;12.77;8.50;;;3.30;90.50;;;;;;5073858;28;20490;-73
2021/04/08 04:17:37;;;;;;;11.13;7.73;;;3.30;90.60;;;;;;5073751;28;20566;-73
2021/04/08 04:20:05;;;;;;;11.57;8.73;;;3.30;90.50;;;;;;5073487;28;20958;-73
2021/04/08 04:22:33;;;;;;;13.30;8.70;;;3.40;90.60;;;;;;5073744;28;20452;-73
2021/04/08 04:25:00;;;;;;;11.57;8.33;;;3.50;90.70;;;;;;5074217;28;20481;-73
2021/04/08 04:27:26;;;;;;;13.93;8.07;;;3.50;90.60;;;;;;5073627;28;20457;-73
2021/04/08 04:29:52;;;;;;;20.50;10.20;;;3.60;90.60;;;;;;5073667;28;20449;-73
2021/04/08 04:32:18;;;;;;;10.13;8.37;;;3.60;90.40;;;;;;5073593;28;20446;-73
2021/04/08 04:34:46;;;;;;;16.03;9.37;;;3.70;90.30;;;;;;5073571;28;20449;-73
2021/04/08 04:37:12;;;;;;;15.33;9.50;;;3.70;90.20;;;;;;5073485;28;20502;-73
2021/04/08 04:39:40;;;;;;;9.50;8.53;;;3.70;90.10;;;;;;5073239;28;20997;-73
2021/04/08 04:42:08;;;;;;;17.27;9.13;;;3.70;90.00;;;;;;5073521;28;20453;-73
2021/04/08 04:44:34;;;;;;;20.33;9.67;;;3.70;89.70;;;;;;5073391;28;20484;-73
2021/04/08 04:47:02;;;;;;;11.87;7.50;;;3.70;89.70;;;;;;5073388;28;20466;-73
2021/04/08 04:49:28;;;;;;;11.07;8.90;;;3.70;89.80;;;;;;5073466;28;20456;-73
2021/04/08 04:51:55;;;;;;;13.90;8.73;;;3.70;89.40;;;;;;5073052;28;20867;-73
2021/04/08 04:54:21;;;;;;;10.77;9.20;;;3.80;89.40;;;;;;5073095;28;20989;-73
2021/04/08 04:56:49;;;;;;;11.83;8.63;;;3.70;89.00;;;;;;5072991;28;20983;-73
2021/04/08 04:59:15;;;;;;;10.43;8.30;;;3.70;89.10;;;;;;5073030;28;20502;-73
2021/04/08 05:01:41;;;;;;;17.57;10.47;;;3.70;89.10;;;;;;5073099;28;20975;-73
2021/04/08 05:04:08;;;;;;;12.43;9.70;;;3.70;89.10;;;;;;5073276;28;20480;-73
2021/04/08 05:06:34;;;;;;;16.77;8.07;;;3.70;89.00;;;;;;5073237;28;20888;-73
2021/04/08 05:09:00;;;;;;;12.00;9.07;;;3.70;88.80;;;;;;5072984;28;20959;-73
2021/04/08 05:11:27;;;;;;;13.33;8.63;;;3.70;89.10;;;;;;5073199;28;20455;-73
2021/04/08 05:13:54;;;;;;;18.63;9.97;;;3.70;88.50;;;;;;5072883;28;20844;-73
2021/04/08 05:16:20;;;;;;;12.80;8.67;;;3.70;88.60;;;;;;5073101;28;20476;-73
2021/04/08 05:18:47;;;;;;;13.90;9.90;;;3.70;88.40;;;;;;5073190;28;20437;-73
2021/04/08 05:21:13;;;;;;;14.73;9.73;;;3.80;88.60;;;;;;5073136;28;20832;-73
2021/04/08 05:23:39;;;;;;;16.37;8.53;;;3.90;88.40;;;;;;5073002;28;20448;-73
2021/04/08 05:26:06;;;;;;;11.47;8.03;;;4.00;88.00;;;;;;5072844;28;20462;-73
2021/04/08 05:28:32;;;;;;;13.50;8.23;;;4.00;86.80;;;;;;5073040;28;20461;-73
2021/04/08 05:30:59;;;;;;;11.67;7.33;;;4.00;86.40;;;;;;5072729;28;20447;-73
2021/04/08 05:33:26;;;;;;;15.70;8.10;;;4.00;86.40;;;;;;5072992;28;20447;-73
2021/04/08 05:35:52;;;;;;;18.80;8.30;;;3.90;85.50;;;;;;5072954;28;20551;-73
2021/04/08 05:38:18;;;;;;;9.07;6.90;;;4.00;85.50;;;;;;5072925;28;20442;-73
2021/04/08 05:40:44;;;;;;;8.83;7.93;;;4.00;85.20;;;;;;5072629;28;20937;-73
2021/04/08 05:43:10;;;;;;;9.63;7.27;;;4.00;85.00;;;;;;5072867;28;20453;-73
2021/04/08 05:45:37;;;;;;;10.70;7.07;;;4.00;85.20;;;;;;5072721;28;20573;-73
2021/04/08 05:48:05;;;;;;;11.73;6.53;;;4.00;84.80;;;;;;5072711;28;20458;-73
2021/04/08 05:50:31;;;;;;;9.07;7.73;;;4.00;84.60;;;;;;5072970;28;20442;-73
2021/04/08 05:52:57;;;;;;;11.97;6.93;;;4.00;84.50;;;;;;5072820;28;20450;-73
2021/04/08 05:55:24;;;;;;;9.90;7.73;;;4.00;84.00;;;;;;5073568;28;20438;-73
2021/04/08 05:57:50;;;;;;;11.73;6.80;;;4.00;84.60;;;;;;5076413;28;20466;-73
2021/04/08 06:00:17;;;;;;;9.60;6.17;;;4.00;84.40;;;;;;5076362;28;20450;-73
2021/04/08 06:02:43;;;;;;;12.60;7.33;;;4.10;84.50;;;;;;5077152;28;20447;-73
2021/04/08 06:05:12;;;;;;;11.23;7.87;;;4.10;83.80;;;;;;5076182;28;20478;-73
2021/04/08 06:07:38;;;;;;;6.30;5.60;;;4.10;83.50;;;;;;5075782;28;20824;-73
2021/04/08 06:10:05;;;;;;;14.33;7.30;;;4.20;83.50;;;;;;5077011;28;20450;-73
2021/04/08 06:12:31;;;;;;;9.60;7.50;;;4.20;82.80;;;;;;5075814;28;20950;-73
2021/04/08 06:14:58;;;;;;;11.13;6.80;;;4.20;82.40;;;;;;5076112;28;20449;-73
2021/04/08 06:17:24;;;;;;;10.37;6.77;;;4.20;82.90;;;;;;5076005;28;20552;-73
2021/04/08 06:19:52;;;;;;;8.83;6.20;;;4.20;82.80;;;;;;5076002;28;20450;-73
2021/04/08 06:22:19;;;;;;;7.10;6.40;;;4.10;82.90;;;;;;5075656;28;20450;-73
2021/04/08 06:24:46;;;;;;;17.07;7.10;;;4.20;82.40;;;;;;5075816;28;20473;-73
2021/04/08 06:27:12;;;;;;;11.70;6.77;;;4.10;81.70;;;;;;5075721;28;20906;-73
2021/04/08 06:29:38;;;;;;;9.80;6.27;;;4.20;82.10;;;;;;5075833;28;20492;-73
2021/04/08 06:32:05;;;;;;;11.20;6.67;;;4.30;82.00;;;;;;5075747;28;20448;-73
2021/04/08 06:34:32;;;;;;;21.53;6.50;;;4.30;81.20;;;;;;5075744;28;20538;-73
2021/04/08 06:36:58;;;;;;;16.87;6.90;;;4.30;80.90;;;;;;5075444;28;20562;-75
2021/04/08 06:39:26;;;;;;;7.37;6.40;;;4.40;80.40;;;;;;5075190;28;20953;-73
2021/04/08 06:41:53;;;;;;;15.10;6.40;;;4.50;80.20;;;;;;5075595;28;20474;-73
2021/04/08 06:44:23;;;;;;;8.37;6.20;;;4.60;79.50;;;;;;5075411;28;20540;-73
2021/04/08 06:46:53;;;;;;;13.50;7.03;;;4.60;79.30;;;;;;5075446;28;20473;-73
2021/04/08 06:49:23;;;;;;;8.93;6.50;;;4.70;80.20;;;;;;5075522;28;20432;-74
2021/04/08 06:51:54;;;;;;;12.17;5.77;;;4.70;78.20;;;;;;5076005;28;20455;-74
2021/04/08 06:54:21;;;;;;;8.37;6.77;;;4.80;78.70;;;;;;5075400;28;20428;-74
2021/04/08 06:56:49;;;;;;;11.30;5.63;;;4.90;78.20;;;;;;5075259;28;20467;-74
2021/04/08 06:59:16;;;;;;;11.93;5.30;;;4.80;77.30;;;;;;5075324;28;20467;-73
2021/04/08 07:01:44;;;;;;;8.27;6.27;;;4.80;76.80;;;;;;5075232;28;20448;-73
2021/04/08 07:04:10;;;;;;;8.43;5.50;;;4.90;76.00;;;;;;5075199;28;20508;-72
2021/04/08 07:06:37;;;;;;;9.17;6.43;;;4.90;76.70;;;;;;5074257;28;20476;-72
2021/04/08 07:09:05;;;;;;;13.30;7.30;;;5.00;76.50;;;;;;5074834;28;20436;-72
2021/04/08 07:11:31;;;;;;;9.63;5.73;;;4.90;76.90;;;;;;5074744;28;20815;-72
2021/04/08 07:13:58;;;;;;;12.67;5.90;;;5.00;76.40;;;;;;5075070;28;20789;-72
2021/04/08 07:16:24;;;;;;;10.90;5.50;;;5.00;75.40;;;;;;5074432;28;20982;-73
2021/04/08 07:18:51;;;;;;;10.40;5.50;;;5.00;75.70;;;;;;5074958;28;20432;-73
2021/04/08 07:21:17;;;;;;;7.03;5.60;;;5.00;75.60;;;;;;5074426;28;20931;-72
2021/04/08 07:24:08;;;;;;;8.83;5.17;;;5.10;75.70;;;;;;5074658;28;20435;-73
2021/04/08 07:26:50;;;;;;;10.00;5.43;;;5.20;74.90;;;;;;5074748;28;20513;-74
2021/04/08 07:29:17;;;;;;;9.87;5.50;;;5.30;74.70;;;;;;5074717;28;20430;-73
2021/04/08 07:31:44;;;;;;;9.23;5.60;;;5.30;73.10;;;;;;5074651;28;20448;-73
2021/04/08 07:34:10;;;;;;;8.43;4.83;;;5.30;74.10;;;;;;5074587;28;20424;-72
2021/04/08 07:36:38;;;;;;;11.83;5.33;;;5.40;74.30;;;;;;5074193;28;21035;-74
2021/04/08 07:39:06;;;;;;;9.07;6.23;;;5.40;75.10;;;;;;5074470;28;20424;-74
2021/04/08 07:41:34;;;;;;;9.30;5.93;;;5.50;75.20;;;;;;5074417;28;20440;-74
2021/04/08 07:44:03;;;;;;;7.73;5.90;;;5.60;75.20;;;;;;5074737;28;20840;-76
2021/04/08 07:46:32;;;;;;;8.63;5.13;;;5.80;75.20;;;;;;5074309;28;20468;-72
2021/04/08 07:48:58;;;;;;;6.97;5.70;;;5.90;73.60;;;;;;5074038;28;20441;-73
2021/04/08 07:51:29;;;;;;;10.57;5.40;;;6.00;73.10;;;;;;5074238;28;20452;-74
2021/04/08 07:54:11;;;;;;;9.97;5.30;;;5.90;72.10;;;;;;5074253;28;20429;-75
2021/04/08 07:56:38;;;;;;;5.53;4.90;;;6.00;73.00;;;;;;5074121;28;20472;-73
2021/04/08 07:59:18;;;;;;;7.87;5.93;;;6.10;72.60;;;;;;5074085;28;20451;-75
2021/04/08 08:01:47;;;;;;;10.40;4.80;;;6.10;70.90;;;;;;5074018;28;20508;-74
2021/04/08 08:04:24;;;;;;;8.33;5.03;;;6.10;70.30;;;;;;5073913;28;20529;-72
2021/04/08 08:06:51;;;;;;;8.97;4.63;;;6.10;68.70;;;;;;5073701;28;20557;-69
2021/04/08 08:09:22;;;;;;;7.17;4.37;;;6.10;69.70;;;;;;5073943;28;20448;-70
2021/04/08 08:11:49;;;;;;;7.60;4.73;;;6.10;68.30;;;;;;5073904;28;20444;-69
2021/04/08 08:14:16;;;;;;;11.13;5.33;;;6.20;69.60;;;;;;5073824;28;20451;-70
2021/04/08 08:17:02;;;;;;;8.00;5.23;;;6.30;68.70;;;;;;5073687;28;20472;-77
2021/04/08 08:19:29;;;;;;;12.30;4.60;;;6.40;67.60;;;;;;5073574;28;20839;-69
2021/04/08 08:21:55;;;;;;;5.27;4.00;;;6.40;66.10;;;;;;5073789;28;20854;-69
2021/04/08 08:24:22;;;;;;;7.30;4.83;;;6.50;65.70;;;;;;5073722;28;20525;-70
2021/04/08 08:26:49;;;;;;;10.53;4.80;;;6.70;66.90;;;;;;5073636;28;20471;-68
2021/04/08 08:29:17;;;;;;;16.00;6.43;;;6.90;67.30;;;;;;5073681;28;20482;-69
2021/04/08 08:31:46;;;;;;;6.83;4.47;;;7.10;65.80;;;;;;5073668;28;20457;-70
2021/04/08 08:34:17;;;;;;;9.63;4.33;;;7.40;64.50;;;;;;5073561;28;20444;-75
2021/04/08 08:36:45;;;;;;;8.60;4.63;;;7.50;61.20;;;;;;5073538;28;20469;-71
2021/04/08 08:39:14;;;;;;;8.40;5.17;;;7.50;61.70;;;;;;5073214;28;20801;-73
2021/04/08 08:41:40;;;;;;;11.33;4.77;;;7.30;58.60;;;;;;5073244;28;20948;-70
2021/04/08 08:44:08;;;;;;;13.97;4.70;;;7.30;59.10;;;;;;5073561;28;20460;-70
2021/04/08 08:46:50;;;;;;;7.13;4.80;;;7.30;58.70;;;;;;5073522;28;20456;-71
2021/04/08 08:49:23;;;;;;;6.90;4.87;;;7.20;58.20;;;;;;5073719;28;20425;-72
2021/04/08 08:51:51;;;;;;;7.43;4.70;;;7.30;58.30;;;;;;5073320;28;20972;-76
2021/04/08 08:54:17;;;;;;;10.80;4.80;;;7.40;60.00;;;;;;5074080;28;20437;-75
2021/04/08 08:56:44;;;;;;;8.93;4.70;;;7.50;58.60;;;;;;5073449;28;20464;-75
2021/04/08 08:59:11;;;;;;;4.40;4.00;;;7.70;57.70;;;;;;5073689;28;20451;-75
2021/04/08 09:01:39;;;;;;;8.30;4.30;;;7.70;55.40;;;;;;5073425;28;20444;-74
2021/04/08 09:04:05;;;;;;;6.97;5.47;;;7.80;55.50;;;;;;5073316;28;20506;-75
2021/04/08 09:06:35;;;;;;;7.80;4.87;;;7.90;55.10;;;;;;5072976;28;21002;-74
2021/04/08 09:09:06;;;;;;;5.90;4.43;;;8.00;55.20;;;;;;5073296;28;20479;-72
2021/04/08 09:11:34;;;;;;;8.17;5.47;;;8.00;55.70;;;;;;5073325;28;20483;-72
2021/04/08 09:14:01;;;;;;;9.07;5.37;;;8.10;56.90;;;;;;5073338;28;20506;-77
2021/04/08 09:16:29;;;;;;;8.47;5.53;;;8.30;55.10;;;;;;5073478;28;20939;-76
2021/04/08 09:19:01;;;;;;;6.73;5.53;;;8.40;55.20;;;;;;5073372;28;20445;-75
2021/04/08 09:21:41;;;;;;;10.03;5.13;;;8.70;54.90;;;;;;5073135;28;20516;-77
2021/04/08 09:24:12;;;;;;;8.40;5.10;;;9.00;54.70;;;;;;5073356;28;20427;-76
2021/04/08 09:26:39;;;;;;;5.70;4.43;;;9.30;52.10;;;;;;5073201;28;20465;-75
2021/04/08 09:29:06;;;;;;;10.60;4.77;;;9.40;50.50;;;;;;5072868;28;20954;-75
2021/04/08 09:31:32;;;;;;;6.10;4.27;;;9.60;51.60;;;;;;5075962;28;20446;-76
2021/04/08 09:34:00;;;;;;;7.40;4.87;;;9.40;48.90;;;;;;5076860;28;20445;-74
2021/04/08 09:36:37;;;;;;;9.70;4.80;;;9.30;48.50;;;;;;5076801;28;20462;-74
2021/04/08 09:39:23;;;;;;;7.00;4.37;;;9.10;48.20;;;;;;5077018;28;20501;-75
2021/04/08 09:41:54;;;;;;;5.50;3.90;;;9.10;46.50;;;;;;5076729;28;20436;-74
2021/04/08 09:44:21;;;;;;;4.37;3.50;;;9.00;48.60;;;;;;5076575;28;20502;-72
2021/04/08 09:46:50;;;;;;;10.23;4.23;;;9.10;46.00;;;;;;5076526;28;20472;-72
2021/04/08 09:49:46;;;;;;;9.93;4.27;;;9.00;45.40;;;;;;5076499;28;20445;-73
2021/04/08 09:52:13;;;;;;;11.97;3.30;;;8.90;46.00;;;;;;5076612;28;20832;-74
2021/04/08 09:54:43;;;;;;;5.70;3.30;;;8.90;44.90;;;;;;5076514;28;20441;-73
2021/04/08 09:57:10;;;;;;;4.87;3.10;;;9.00;45.60;;;;;;5077599;28;20510;-79
2021/04/08 09:59:56;;;;;;;5.27;3.97;;;9.30;44.00;;;;;;5079915;28;20441;-79
2021/04/08 10:02:23;;;;;;;6.73;4.80;;;9.30;45.70;;;;;;5081145;28;20939;-81
2021/04/08 10:05:05;;;;;;;3.50;3.20;;;9.50;47.60;;;;;;5084063;28;20475;-79
2021/04/08 10:07:31;;;;;;;3.80;3.00;;;9.50;42.10;;;;;;5079346;28;20497;-79
2021/04/08 10:09:58;;;;;;;5.20;3.27;;;9.50;41.50;;;;;;5081528;28;20861;-77
2021/04/08 10:12:31;;;;;;;4.50;3.80;;;9.70;40.00;;;;;;5082089;28;20433;-77
2021/04/08 10:14:58;;;;;;;4.10;3.70;;;10.10;40.80;;;;;;5083160;28;20452;-78
2021/04/08 10:17:34;;;;;;;5.90;3.80;;;10.10;39.10;;;;;;5081854;28;20974;-78
2021/04/08 10:20:01;;;;;;;4.63;3.50;;;10.10;40.00;;;;;;5080262;28;20429;-77
2021/04/08 10:22:27;;;;;;;5.03;3.83;;;10.20;40.40;;;;;;5080578;28;20437;-79
2021/04/08 10:24:54;;;;;;;4.40;3.80;;;10.30;40.50;;;;;;5080513;28;21014;-78
2021/04/08 10:27:24;;;;;;;5.77;4.13;;;10.20;39.90;;;;;;5083729;28;20465;-80
2021/04/08 10:29:50;;;;;;;4.93;3.47;;;9.80;40.40;;;;;;5082743;28;20425;-78
2021/04/08 10:32:31;;;;;;;4.63;3.93;;;9.30;38.10;;;;;;5080407;28;20439;-79
2021/04/08 10:34:58;;;;;;;3.87;3.57;;;9.00;41.10;;;;;;5079810;28;20452;-77
2021/04/08 10:37:25;;;;;;;3.80;3.50;;;9.10;41.30;;;;;;5082092;28;20510;-79
2021/04/08 10:39:51;;;;;;;4.53;3.70;;;9.20;41.00;;;;;;5087333;28;20433;-78
2021/04/08 10:42:17;;;;;;;5.50;3.83;;;9.20;40.50;;;;;;5083948;28;20448;-77
2021/04/08 10:44:46;;;;;;;4.40;4.00;;;9.00;41.10;;;;;;5083295;28;20491;-78
2021/04/08 10:47:15;;;;;;;3.83;3.47;;;8.90;40.00;;;;;;5083009;28;20464;-78
2021/04/08 10:49:46;;;;;;;11.43;3.97;;;8.80;41.50;;;;;;5081653;28;20450;-78
2021/04/08 10:52:15;;;;;;;4.67;4.10;;;8.80;41.60;;;;;;5081963;28;20431;-78
2021/04/08 10:54:43;;;;;;;8.47;4.53;;;8.90;43.40;;;;;;5082781;28;20445;-79
2021/04/08 10:57:10;;;;;;;8.70;4.03;;;9.40;41.20;;;;;;5080673;28;20465;-77
2021/04/08 10:59:39;;;;;;;6.33;4.47;;;9.90;40.30;;;;;;5080304;28;20452;-78
2021/04/08 11:02:23;;;;;;;7.00;3.70;;;10.10;39.20;;;;;;5080645;28;20804;-79
2021/04/08 11:04:50;;;;;;;6.93;5.13;;;10.20;38.80;;;;;;5079852;28;20469;-79
2021/04/08 11:07:17;;;;;;;7.00;4.13;;;10.20;41.50;;;;;;5082035;28;20835;-78
2021/04/08 11:09:44;;;;;;;6.60;4.87;;;10.20;41.90;;;;;;5078467;28;20453;-78
2021/04/08 11:12:19;;;;;;;9.30;4.80;;;10.00;41.40;;;;;;5074944;28;20807;-75
2021/04/08 11:14:46;;;;;;;8.77;5.00;;;9.60;40.80;;;;;;5075339;28;20531;-77
2021/04/08 11:17:13;;;;;;;6.07;4.53;;;9.50;41.30;;;;;;5075089;28;20465;-74
2021/04/08 11:19:42;;;;;;;5.30;4.60;;;9.90;41.10;;;;;;5076985;28;20440;-79
2021/04/08 11:22:11;;;;;;;4.43;4.03;;;10.40;37.80;;;;;;5078116;28;20453;-80
2021/04/08 11:24:38;;;;;;;6.13;4.17;;;10.30;38.00;;;;;;5075350;28;20480;-76
2021/04/08 11:27:05;;;;;;;5.50;4.57;;;10.40;37.40;;;;;;5074665;28;20468;-69
2021/04/08 11:29:31;;;;;;;4.93;4.53;;;10.40;38.10;;;;;;5074820;28;20441;-74
2021/04/08 11:32:03;;;;;;;5.70;4.23;;;10.70;39.00;;;;;;5075116;28;20436;-78
2021/04/08 11:34:41;;;;;;;5.00;4.40;;;11.10;41.20;;;;;;5074807;28;20425;-72
2021/04/08 11:37:08;;;;;;;4.47;3.73;;;11.40;38.00;;;;;;5074238;28;20479;-72
2021/04/08 11:39:34;;;;;;;6.10;4.37;;;11.30;37.10;;;;;;5074101;28;20954;-71
2021/04/08 11:42:14;;;;;;;5.70;4.73;;;11.40;37.90;;;;;;5074615;28;20429;-73
2021/04/08 11:44:40;;;;;;;6.93;4.90;;;11.40;38.40;;;;;;5074480;28;20472;-72
2021/04/08 11:47:12;;;;;;;5.40;4.50;;;11.20;37.60;;;;;;5073982;28;20468;-71
2021/04/08 11:49:47;;;;;;;7.63;4.80;;;10.70;37.70;;;;;;5074079;28;20938;-71
2021/04/08 11:52:15;;;;;;;5.57;5.07;;;10.30;38.60;;;;;;5074295;28;20435;-71
2021/04/08 11:55:00;;;;;;;6.87;4.93;;;10.20;38.40;;;;;;5074376;28;20441;-79
2021/04/08 11:57:27;;;;;;;8.47;5.57;;;10.30;39.00;;;;;;5074209;28;20472;-73
2021/04/08 12:00:06;;;;;;;4.80;4.37;;;10.50;38.50;;;;;;5074013;28;20806;-72
2021/04/08 12:02:34;;;;;;;6.40;5.80;;;10.90;38.10;;;;;;5074164;28;20436;-73
2021/04/08 12:05:02;;;;;;;7.40;5.90;;;10.90;37.50;;;;;;5074281;28;20484;-70
2021/04/08 12:07:29;;;;;;;8.03;5.80;;;11.00;37.70;;;;;;5073851;28;20538;-72
2021/04/08 12:09:55;;;;;;;8.70;5.60;;;11.10;37.90;;;;;;5074191;28;20471;-73
2021/04/08 12:12:31;;;;;;;6.80;6.07;;;11.10;38.40;;;;;;5074188;28;20474;-73
2021/04/08 12:14:59;;;;;;;6.47;5.27;;;11.10;38.00;;;;;;5074155;28;20425;-73
2021/04/08 12:17:26;;;;;;;5.93;5.43;;;11.70;35.30;;;;;;5074093;28;20492;-73
2021/04/08 12:19:53;;;;;;;6.87;6.00;;;12.20;36.70;;;;;;5074243;28;20432;-72
2021/04/08 12:22:21;;;;;;;6.30;5.70;;;12.10;33.70;;;;;;5074173;28;20797;-72
2021/04/08 12:25:07;;;;;;;6.40;5.90;;;11.70;33.90;;;;;;5073904;28;20479;-75
2021/04/08 12:27:33;;;;;;;7.53;6.57;;;11.50;34.50;;;;;;5074206;28;20473;-75
2021/04/08 12:30:00;;;;;;;7.53;6.20;;;11.10;35.50;;;;;;5074153;28;20429;-74
2021/04/08 12:32:29;;;;;;;9.43;6.93;;;10.90;36.70;;;;;;5074184;28;20507;-78
2021/04/08 12:34:56;;;;;;;6.93;6.13;;;10.70;37.20;;;;;;5073798;28;20969;-75
2021/04/08 12:37:23;;;;;;;7.33;6.50;;;10.70;37.50;;;;;;5074132;28;20582;-72
2021/04/08 12:39:49;;;;;;;6.47;5.87;;;10.60;38.20;;;;;;5073577;28;20462;-71
2021/04/08 12:42:16;;;;;;;7.00;5.83;;;11.30;36.80;;;;;;5073653;28;20441;-71
2021/04/08 12:44:42;;;;;;;7.53;6.77;;;12.00;34.90;;;;;;5073596;28;20838;-71
2021/04/08 12:47:10;;;;;;;10.70;6.33;;;12.50;34.30;;;;;;5073422;28;20464;-70
2021/04/08 12:49:36;;;;;;;8.37;6.67;;;12.70;34.00;;;;;;5073513;28;20504;-73
2021/04/08 12:52:02;;;;;;;9.73;6.13;;;13.20;32.70;;;;;;5073144;28;20445;-74
2021/04/08 12:54:31;;;;;;;7.20;5.93;;;14.00;30.90;;;;;;5073347;28;20444;-73
2021/04/08 12:56:57;;;;;;;6.00;5.50;;;14.80;31.90;;;;;;5073280;28;20534;-73
2021/04/08 12:59:23;;;;;;;6.53;5.70;;;15.90;29.70;;;;;;5073392;28;20436;-73
2021/04/08 13:01:50;;;;;;;6.60;5.80;;;17.10;28.70;;;;;;5073290;28;20445;-72